Flight Track Log - Related Links

Times and Time Zones

All times are in EDT time to prevent confusion due to time zone crossing. See the UAL996 flight status page for this flight to view local times or setup timezone preferences in your user account.

Time Position Orientation Groundspeed Altitude Reporting Facility
EDT Latitude Longitude Course Direction KTS MPH feet Rate Location/Type
Wed 03:49:04 PM 40.7167 -74.1333 303° West 197 227 1,800  Level New York TRACON
Wed 03:50:04 PM 40.7667 -74.1333 360° North 241 277 3,800 2,300 Climbing New York TRACON
Wed 03:51:00 PM 40.7796 -74.5606 282° West  Level FlightAware Approximate
Wed 03:51:04 PM 40.8000 -74.2167 298° West 264 304 6,400  Level New York TRACON
Wed 03:52:00 PM 40.8049 -74.7043 287° West  Level FlightAware Approximate
Wed 03:52:05 PM 40.8167 -74.3167 282° West 269 310 9,200  Level New York TRACON
Wed 03:53:00 PM 40.8375 -74.8455 287° West  Level FlightAware Approximate
Wed 03:53:04 PM 40.8333 -74.4167 282° West 307 353 10,700  Level New York TRACON
Wed 03:54:00 PM 40.8740 -74.9812 303° West  Level FlightAware Approximate
Wed 03:54:05 PM 40.8500 -74.5500 279° West 361 415 12,200  Level New York TRACON
Wed 03:55:08 PM 40.8597 -74.6697 276° West 381 438 14,100 2,195 Climbing New York Center
Wed 03:56:08 PM 40.8775 -74.8217 279° West 387 445 16,700 2,136 Climbing New York Center
Wed 03:57:06 PM 40.8936 -74.9544 279° West 398 458 18,300 1,866 Climbing New York Center
Wed 03:58:07 PM 40.9131 -75.1122 279° West 398 458 20,400 1,869 Climbing New York Center
Wed 03:59:08 PM 40.8972 -75.2594 262° West 408 470 22,100 1,613 Climbing New York Center
Wed 04:00:06 PM 40.8664 -75.4083 255° West 408 470 23,600 1,765 Climbing New York Center
Wed 04:01:07 PM 40.8314 -75.5514 252° West 413 475 25,600 1,636 Climbing New York Center
Wed 04:02:07 PM 40.7964 -75.6997 253° West 418 481 26,900 1,190 Climbing New York Center
Wed 04:03:08 PM 40.7586 -75.8531 252° West 424 488 28,000 545 Climbing New York Center
Wed 04:04:08 PM 40.7275 -75.9878 253° West 424 488 28,000  Level New York Center
Wed 04:05:06 PM 40.6897 -76.1381 252° West 434 499 28,000 203 Level New York Center
Wed 04:06:06 PM 40.6697 -76.2981 261° West 434 499 28,400 639 Climbing New York Center
Wed 04:07:08 PM 40.6956 -76.4589 282° West 434 499 29,300 1,033 Climbing New York Center
Wed 04:08:08 PM 40.7231 -76.6228 283° West 451 519 30,500 1,373 Climbing New York Center
Wed 04:09:06 PM 40.7442 -76.7808 280° West 451 519 32,000 756 Climbing New York Center
Wed 04:10:07 PM 40.7675 -76.9336 281° West 444 511 32,000  Level New York Center
Wed 04:11:08 PM 40.7906 -77.0892 281° West 437 503 32,000  Level New York Center
Wed 04:12:08 PM 40.8114 -77.2447 280° West 432 497 32,000  Level New York Center
Wed 04:13:07 PM 40.8375 -77.4144 282° West 432 497 32,000  Level New York Center
Wed 04:14:44 PM 40.8697 -77.6561 280° West 413 475 32,000  Level Cleveland Center
Wed 04:15:44 PM 40.8922 -77.8061 281° West 423 487 32,000  Level Cleveland Center
Wed 04:16:44 PM 40.9128 -77.9617 280° West 428 493 32,000  Level Cleveland Center
Wed 04:17:44 PM 40.9308 -78.1178 279° West 428 493 32,000  Level Cleveland Center
Wed 04:18:44 PM 40.9553 -78.2928 281° West 428 493 32,000  Level Cleveland Center
Wed 04:19:44 PM 40.9728 -78.4464 279° West 426 490 32,000  Level Cleveland Center
Wed 04:20:44 PM 40.9944 -78.6050 280° West 426 490 32,000  Level Cleveland Center
Wed 04:21:44 PM 41.0069 -78.7314 278° West 426 490 32,000  Level Cleveland Center
Wed 04:22:44 PM 41.0264 -78.9181 278° West 426 490 32,000  Level Cleveland Center
Wed 04:23:44 PM 41.0453 -79.0744 279° West 426 490 32,000 100 Level Cleveland Center
Wed 04:24:44 PM 41.0619 -79.2311 278° West 426 490 32,200 700 Climbing Cleveland Center
Wed 04:25:44 PM 41.0803 -79.3875 279° West 426 490 33,400 900 Climbing Cleveland Center
Wed 04:26:44 PM 41.0942 -79.5278 278° West 426 490 34,000 300 Climbing Cleveland Center
Wed 04:27:44 PM 41.1100 -79.6819 278° West 426 490 34,000  Level Cleveland Center
Wed 04:28:44 PM 41.1278 -79.8333 279° West 426 490 34,000  Level Cleveland Center
Wed 04:29:44 PM 41.1414 -80.0097 276° West 426 490 34,000  Level Cleveland Center
Wed 04:30:44 PM 41.1586 -80.1503 279° West 431 496 34,000  Level Cleveland Center
Wed 04:31:44 PM 41.1758 -80.3072 278° West 431 496 34,000  Level Cleveland Center
Wed 04:32:44 PM 41.1908 -80.4700 277° West 437 503 34,000  Level Cleveland Center
Wed 04:33:44 PM 41.2053 -80.6300 277° West 443 510 34,000  Level Cleveland Center
Wed 04:34:44 PM 41.2239 -80.8067 278° West 438 504 34,000  Level Cleveland Center
Wed 04:35:44 PM 41.2381 -80.9642 277° West 438 504 34,000  Level Cleveland Center
Wed 04:36:44 PM 41.2519 -81.1217 277° West 444 511 34,000  Level Cleveland Center
Wed 04:37:44 PM 41.2678 -81.2819 278° West 444 511 34,000  Level Cleveland Center
Wed 04:38:44 PM 41.2836 -81.4231 279° West 444 511 34,000  Level Cleveland Center
Wed 04:39:44 PM 41.2989 -81.5808 277° West 444 511 34,000  Level Cleveland Center
Wed 04:40:44 PM 41.3119 -81.7469 276° West 444 511 34,000  Level Cleveland Center
Wed 04:41:44 PM 41.3269 -81.9047 277° West 444 511 34,000  Level Cleveland Center
Wed 04:42:44 PM 41.3394 -82.0683 276° West 444 511 34,000  Level Cleveland Center
Wed 04:43:44 PM 41.3539 -82.2456 276° West 444 511 34,000  Level Cleveland Center
Wed 04:44:44 PM 41.3658 -82.4092 276° West 444 511 34,000  Level Cleveland Center
Wed 04:45:44 PM 41.3778 -82.5700 276° West 439 505 34,000  Level Cleveland Center
Wed 04:46:44 PM 41.3875 -82.7281 275° West 439 505 34,000  Level Cleveland Center
Wed 04:47:44 PM 41.3967 -82.8917 274° West 445 512 34,000  Level Cleveland Center
Wed 04:48:44 PM 41.4058 -83.0497 274° West 440 506 34,000  Level Cleveland Center
Wed 04:49:44 PM 41.4067 -83.2078 270° West 440 506 34,000  Level Cleveland Center
Wed 04:50:44 PM 41.4092 -83.3683 271° West 440 506 34,000  Level Cleveland Center
Wed 04:51:44 PM 41.4133 -83.5319 272° West 440 506 34,000  Level Cleveland Center
Wed 04:52:44 PM 41.4175 -83.6900 272° West 440 506 34,000  Level Cleveland Center
Wed 04:53:44 PM 41.4192 -83.8481 271° West 435 501 34,000  Level Cleveland Center
Wed 04:54:44 PM 41.4231 -84.0089 272° West 435 501 34,000  Level Cleveland Center
Wed 04:55:44 PM 41.4244 -84.1667 271° West 435 501 34,000  Level Cleveland Center
Wed 04:56:44 PM 41.4319 -84.3222 274° West 435 501 34,000  Level Cleveland Center
Wed 04:58:05 PM 41.4344 -84.5372 271° West 426 490 34,000  Level Chicago Center
Wed 04:59:07 PM 41.4350 -84.6961 270° West 429 494 34,000  Level Chicago Center
Wed 05:00:09 PM 41.4364 -84.8550 271° West 430 495 34,000  Level Chicago Center
Wed 05:01:11 PM 41.4372 -85.0142 270° West 429 494 34,000  Level Chicago Center
Wed 05:02:13 PM 41.4383 -85.1753 271° West 432 497 34,000  Level Chicago Center
Wed 05:03:15 PM 41.4383 -85.3369 270° West 432 497 34,000  Level Chicago Center
Wed 05:04:18 PM 41.4386 -85.4997 270° West 432 497 34,000  Level Chicago Center
Wed 05:05:20 PM 41.4406 -85.6611 271° West 431 496 34,000  Level Chicago Center
Wed 05:06:22 PM 41.4408 -85.8539 270° West 432 497 34,000  Level Chicago Center
Wed 05:07:24 PM 41.4408 -86.0128 270° West 431 496 34,000  Level Chicago Center
Wed 05:08:26 PM 41.4406 -86.1736 270° West 432 497 34,000  Level Chicago Center
Wed 05:09:28 PM 41.4400 -86.3294 270° West 424 488 34,000  Level Chicago Center
Wed 05:10:30 PM 41.4394 -86.4883 270° West 428 493 34,000  Level Chicago Center
Wed 05:11:32 PM 41.4392 -86.6478 270° West 430 495 34,000  Level Chicago Center
Wed 05:12:34 PM 41.4369 -86.8333 269° West 429 494 34,000  Level Chicago Center
Wed 05:13:36 PM 41.4361 -86.9908 270° West 429 494 34,000  Level Chicago Center
Wed 05:14:38 PM 41.4342 -87.1492 269° West 429 494 34,000  Level Chicago Center
Wed 05:15:41 PM 41.4331 -87.3067 270° West 428 493 34,000  Level Chicago Center
Wed 05:16:43 PM 41.4311 -87.4967 269° West 428 493 34,000  Level Chicago Center
Wed 05:17:45 PM 41.4292 -87.6542 269° West 428 493 34,000  Level Chicago Center
Wed 05:18:47 PM 41.4269 -87.8106 269° West 425 489 34,000  Level Chicago Center
Wed 05:19:49 PM 41.4239 -87.9783 269° West 429 494 34,000  Level Chicago Center
Wed 05:20:51 PM 41.4236 -88.1358 270° West 428 493 34,000  Level Chicago Center
Wed 05:21:53 PM 41.4181 -88.2953 267° West 421 484 34,000  Level Chicago Center
Wed 05:22:55 PM 41.4144 -88.4506 268° West 423 487 34,000  Level Chicago Center
Wed 05:23:57 PM 41.4108 -88.6069 268° West 424 488 34,000  Level Chicago Center
Wed 05:24:59 PM 41.4061 -88.7900 268° West 419 482 34,000  Level Chicago Center
Wed 05:26:01 PM 41.4019 -88.9456 268° West 421 484 34,000  Level Chicago Center
Wed 05:27:03 PM 41.3978 -89.0994 268° West 421 484 34,000  Level Chicago Center
Wed 05:29:08 PM 41.3906 -89.4108 268° West 426 490 34,000  Level Chicago Center
Wed 05:30:10 PM 41.3847 -89.5953 268° West 420 483 34,000  Level Chicago Center
Wed 05:31:12 PM 41.3800 -89.7489 268° West 419 482 34,000  Level Chicago Center
Wed 05:32:14 PM 41.3753 -89.9031 268° West 420 483 34,000  Level Chicago Center
Wed 05:33:16 PM 41.3706 -90.0578 268° West 421 484 34,000  Level Chicago Center
Wed 05:34:18 PM 41.3644 -90.2136 267° West 423 487 34,000  Level Chicago Center
Wed 05:35:20 PM 41.3569 -90.4003 267° West 424 488 34,000  Level Chicago Center
Wed 05:36:22 PM 41.3506 -90.5561 267° West 424 488 34,000  Level Chicago Center
Wed 05:37:24 PM 41.3439 -90.7125 267° West 425 489 34,000  Level Chicago Center
Wed 05:38:27 PM 41.3372 -90.8686 267° West 423 487 34,000  Level Chicago Center
Wed 05:39:29 PM 41.3306 -91.0244 267° West 424 488 34,000  Level Chicago Center
Wed 05:40:31 PM 41.3225 -91.1833 266° West 430 495 34,000  Level Chicago Center
Wed 05:41:33 PM 41.3147 -91.3608 267° West 428 493 34,000  Level Chicago Center
Wed 05:42:35 PM 41.3069 -91.5189 266° West 430 495 34,000  Level Chicago Center
Wed 05:43:37 PM 41.2992 -91.6769 266° West 431 496 34,000  Level Chicago Center
Wed 05:44:39 PM 41.2894 -91.8656 266° West 430 495 34,000  Level Chicago Center
Wed 05:45:41 PM 41.2794 -92.0236 265° West 431 496 34,000  Level Chicago Center
Wed 05:46:43 PM 41.2714 -92.1797 266° West 428 493 34,000  Level Chicago Center
Wed 05:47:45 PM 41.2625 -92.3372 266° West 428 493 34,000  Level Chicago Center
Wed 05:48:47 PM 41.2544 -92.4956 266° West 428 493 34,000  Level Chicago Center
Wed 05:49:50 PM 41.2425 -92.6822 265° West 429 494 34,000  Level Chicago Center
Wed 05:50:52 PM 41.2333 -92.8364 266° West 427 491 34,000  Level Chicago Center
Wed 05:51:22 PM 41.2303 -92.8997 266° West 427 491 34,000  Level Minneapolis Center
Wed 05:52:24 PM 41.2186 -93.0856 265° West 427 491 34,000  Level Minneapolis Center
Wed 05:53:26 PM 41.2092 -93.2400 265° West 426 490 34,000  Level Minneapolis Center
Wed 05:54:28 PM 41.1983 -93.3936 265° West 424 488 34,000  Level Minneapolis Center
Wed 05:55:30 PM 41.1883 -93.5453 265° West 420 483 34,000  Level Minneapolis Center
Wed 05:56:32 PM 41.1786 -93.6961 265° West 416 479 34,000  Level Minneapolis Center
Wed 05:57:34 PM 41.1667 -93.8794 265° West 419 482 34,000  Level Minneapolis Center
Wed 05:58:36 PM 41.1567 -94.0311 265° West 417 480 34,000  Level Minneapolis Center
Wed 05:59:41 PM 41.1469 -94.1822 265° West 416 479 34,000  Level Minneapolis Center
Wed 06:00:43 PM 41.1322 -94.3633 264° West 416 479 34,000  Level Minneapolis Center
Wed 06:01:45 PM 41.1197 -94.5144 264° West 415 478 34,000 144 Level Minneapolis Center
Wed 06:02:48 PM 41.1003 -94.6583 260° West 413 475 34,300 768 Climbing Minneapolis Center
Wed 06:03:50 PM 41.0603 -94.8078 251° West 420 483 35,600 1,355 Climbing Minneapolis Center
Wed 06:04:52 PM 41.0156 -94.9822 251° West 419 482 37,100 1,065 Climbing Minneapolis Center
Wed 06:05:54 PM 41.0078 -95.1250 266° West 402 463 37,800 435 Climbing Minneapolis Center
Wed 06:06:56 PM 40.9981 -95.2717 265° West 399 459 38,000 97 Climbing Minneapolis Center
Wed 06:07:58 PM 40.9844 -95.4181 263° West 400 460 38,000  Level Minneapolis Center
Wed 06:09:00 PM 40.9725 -95.5606 264° West 392 451 38,000  Level Minneapolis Center
Wed 06:10:02 PM 40.9600 -95.7031 263° West 388 447 38,000  Level Minneapolis Center
Wed 06:11:04 PM 40.9483 -95.8461 264° West 389 448 38,000  Level Minneapolis Center
Wed 06:12:06 PM 40.9364 -96.0192 265° West 391 450 38,000  Level Minneapolis Center
Wed 06:13:09 PM 40.9256 -96.1628 264° West 390 449 38,000  Level Minneapolis Center
Wed 06:14:11 PM 40.9136 -96.3069 264° West 392 451 38,000  Level Minneapolis Center
Wed 06:15:13 PM 40.9025 -96.4517 264° West 394 453 38,000  Level Minneapolis Center
Wed 06:16:15 PM 40.8903 -96.5950 264° West 393 452 38,000  Level Minneapolis Center
Wed 06:17:17 PM 40.8786 -96.7386 264° West 393 452 38,000  Level Minneapolis Center
Wed 06:18:21 PM 40.8639 -96.9133 264° West 396 456 38,000  Level Minneapolis Center
Wed 06:19:23 PM 40.8514 -97.0569 263° West 395 455 38,000  Level Minneapolis Center
Wed 06:20:25 PM 40.8389 -97.2025 264° West 397 457 38,000  Level Minneapolis Center
Wed 06:21:27 PM 40.8267 -97.3472 264° West 397 457 38,000  Level Minneapolis Center
Wed 06:22:30 PM 40.8133 -97.4992 263° West 396 456 38,000  Level Minneapolis Center
Wed 06:23:32 PM 40.8011 -97.6422 264° West 393 452 38,000  Level Minneapolis Center
Wed 06:24:34 PM 40.7875 -97.7850 263° West 392 451 38,000  Level Minneapolis Center
Wed 06:25:36 PM 40.7739 -97.9272 263° West 391 450 38,000  Level Minneapolis Center
Wed 06:26:38 PM 40.7578 -98.0964 263° West 388 447 38,000  Level Minneapolis Center
Wed 06:27:40 PM 40.7442 -98.2372 263° West 387 445 38,000  Level Minneapolis Center
Wed 06:28:42 PM 40.7311 -98.3792 263° West 388 447 38,000  Level Minneapolis Center
Wed 06:29:44 PM 40.7167 -98.5236 263° West 393 452 38,000  Level Minneapolis Center
Wed 06:30:46 PM 40.7025 -98.6700 263° West 397 457 38,000  Level Minneapolis Center
Wed 06:31:48 PM 40.6867 -98.8169 262° West 401 461 38,000  Level Minneapolis Center
Wed 06:32:50 PM 40.6728 -98.9653 263° West 404 465 38,000  Level Minneapolis Center
Wed 06:33:53 PM 40.6575 -99.1119 262° West 403 464 38,000  Level Minneapolis Center
Wed 06:34:59 PM 40.6386 -99.2875 262° West 402 463 38,000  Level Denver Center
Wed 06:36:01 PM 40.6236 -99.4331 262° West 400 460 38,000  Level Denver Center
Wed 06:37:03 PM 40.6075 -99.5775 262° West 398 458 38,000  Level Denver Center
Wed 06:38:06 PM 40.5925 -99.7219 262° West 399 459 38,000  Level Denver Center
Wed 06:39:08 PM 40.5747 -99.8822 262° West 399 459 38,000  Level Denver Center
Wed 06:40:10 PM 40.5564 -100.0444 262° West 401 461 38,000  Level Denver Center
Wed 06:41:12 PM 40.5406 -100.1822 261° West 399 459 38,000  Level Denver Center
Wed 06:42:14 PM 40.5225 -100.3456 262° West 402 463 38,000  Level Denver Center
Wed 06:43:16 PM 40.5050 -100.4861 261° West 404 465 38,000  Level Denver Center
Wed 06:44:30 PM 40.4836 -100.6758 262° West 409 471 38,000  Level Denver Center
Wed 06:45:32 PM 40.4658 -100.8189 261° West 411 473 38,000  Level Denver Center
Wed 06:46:35 PM 40.4444 -100.9856 260° West 411 473 38,000  Level Denver Center
Wed 06:47:37 PM 40.4292 -101.1292 262° West 414 476 38,000  Level Denver Center
Wed 06:48:39 PM 40.4108 -101.2731 261° West 415 478 38,000  Level Denver Center
Wed 06:49:41 PM 40.3908 -101.4383 261° West 412 474 38,000  Level Denver Center
Wed 06:50:43 PM 40.3717 -101.5803 260° West 412 474 38,000  Level Denver Center
Wed 06:51:45 PM 40.3508 -101.7447 261° West 409 471 38,000  Level Denver Center
Wed 06:52:47 PM 40.3333 -101.8836 261° West 405 466 38,000  Level Denver Center
Wed 06:53:49 PM 40.3233 -102.0431 265° West 395 455 38,000  Level Denver Center
Wed 06:54:51 PM 40.3183 -102.1789 267° West 391 450 38,000  Level Denver Center
Wed 06:55:53 PM 40.3100 -102.3361 266° West 388 447 38,000  Level Denver Center
Wed 06:56:55 PM 40.3033 -102.4719 266° West 389 448 38,000  Level Denver Center
Wed 06:57:57 PM 40.2947 -102.6319 266° West 394 453 38,000  Level Denver Center
Wed 06:58:59 PM 40.2867 -102.7636 265° West 396 456 38,000  Level Denver Center
Wed 07:00:01 PM 40.2789 -102.9092 266° West 401 461 38,000  Level Denver Center
Wed 07:01:03 PM 40.2700 -103.0847 266° West 405 466 38,000  Level Denver Center
Wed 07:02:05 PM 40.2617 -103.2319 266° West 408 470 38,000  Level Denver Center
Wed 07:03:07 PM 40.2525 -103.3794 265° West 407 468 38,000  Level Denver Center
Wed 07:04:09 PM 40.2425 -103.5269 265° West 410 472 38,000  Level Denver Center
Wed 07:05:11 PM 40.2336 -103.6747 266° West 411 473 38,000  Level Denver Center
Wed 07:06:14 PM 40.2233 -103.8281 265° West 423 487 38,000  Level Denver Center
Wed 07:07:16 PM 40.2103 -104.0053 265° West 411 473 38,000  Level Denver Center
Wed 07:08:18 PM 40.2003 -104.1556 265° West 416 479 38,000  Level Denver Center
Wed 07:09:20 PM 40.1900 -104.3058 265° West 418 481 38,000  Level Denver Center
Wed 07:10:22 PM 40.1797 -104.4569 265° West 421 484 38,000  Level Denver Center
Wed 07:11:24 PM 40.1686 -104.6078 265° West 419 482 38,000  Level Denver Center
Wed 07:12:26 PM 40.1614 -104.7933 267° West 428 493 38,000  Level Denver Center
Wed 07:13:28 PM 40.1658 -104.9461 272° West 424 488 38,000  Level Denver Center
Wed 07:14:30 PM 40.1678 -105.1014 271° West 427 491 38,000  Level Denver Center
Wed 07:15:32 PM 40.1700 -105.2517 271° West 416 479 38,000  Level Denver Center
Wed 07:16:34 PM 40.1717 -105.4058 271° West 422 486 38,000  Level Denver Center
Wed 07:17:36 PM 40.1606 -105.5861 265° West 417 480 38,000  Level Denver Center
Wed 07:18:38 PM 40.1425 -105.7358 261° West 422 486 38,000  Level Denver Center
Wed 07:19:40 PM 40.1242 -105.8817 261° West 410 472 38,000  Level Denver Center
Wed 07:20:43 PM 40.1061 -106.0314 261° West 414 476 38,000  Level Denver Center
Wed 07:21:45 PM 40.0869 -106.1819 261° West 420 483 38,000  Level Denver Center
Wed 07:22:47 PM 40.0683 -106.3333 261° West 423 487 38,000  Level Denver Center
Wed 07:23:49 PM 40.0447 -106.5083 260° West 422 486 38,000  Level Denver Center
Wed 07:24:51 PM 40.0258 -106.6550 260° West 427 491 38,000  Level Denver Center
Wed 07:25:53 PM 40.0042 -106.8239 261° West 424 488 38,000  Level Denver Center
Wed 07:26:55 PM 39.9847 -106.9681 260° West 423 487 38,000  Level Denver Center
Wed 07:27:57 PM 39.9617 -107.1383 260° West 425 489 38,000  Level Denver Center
Wed 07:28:59 PM 39.9417 -107.2842 260° West 428 493 38,000  Level Denver Center
Wed 07:30:01 PM 39.9186 -107.4531 260° West 425 489 38,000  Level Denver Center
Wed 07:31:03 PM 39.8997 -107.5986 260° West 426 490 38,000  Level Denver Center
Wed 07:32:05 PM 39.8756 -107.7678 260° West 426 490 38,000  Level Denver Center
Wed 07:33:07 PM 39.8544 -107.9119 259° West 426 490 38,000  Level Denver Center
Wed 07:34:09 PM 39.8319 -108.0803 260° West 423 487 38,000  Level Denver Center
Wed 07:35:11 PM 39.8117 -108.2247 260° West 422 486 38,000  Level Denver Center
Wed 07:36:13 PM 39.7869 -108.3903 259° West 420 483 38,000  Level Denver Center
Wed 07:37:15 PM 39.7658 -108.5328 259° West 419 482 38,000  Level Denver Center
Wed 07:38:17 PM 39.7417 -108.6986 259° West 427 491 38,000  Level Denver Center
Wed 07:39:20 PM 39.7261 -108.8425 262° West 436 502 38,000  Level Denver Center
Wed 07:40:22 PM 39.7175 -109.0133 266° West 432 497 38,000  Level Denver Center
Wed 07:41:24 PM 39.7108 -109.1594 267° West 427 491 38,000  Level Denver Center
Wed 07:42:26 PM 39.7033 -109.3294 267° West 425 489 38,000  Level Denver Center
Wed 07:43:28 PM 39.6967 -109.4739 267° West 422 486 38,000  Level Denver Center
Wed 07:44:30 PM 39.6892 -109.6439 267° West 422 486 38,000  Level Denver Center
Wed 07:45:32 PM 39.6833 -109.7908 267° West 424 488 38,000  Level Denver Center
Wed 07:46:34 PM 39.6769 -109.9592 267° West 420 483 38,000  Level Denver Center
Wed 07:47:36 PM 39.6561 -110.1003 259° West 416 479 38,000  Level Denver Center
Wed 07:48:38 PM 39.6244 -110.2631 256° West 418 481 38,000  Level Denver Center
Wed 07:49:40 PM 39.6008 -110.4044 258° West 418 481 38,000  Level Denver Center
Wed 07:50:42 PM 39.5714 -110.5697 257° West 421 484 38,000  Level Denver Center
Wed 07:51:44 PM 39.5450 -110.7111 256° West 423 487 38,000  Level Denver Center
Wed 07:52:46 PM 39.5158 -110.8742 257° West 419 482 38,000  Level Denver Center
Wed 07:53:58 PM 39.4861 -111.0392 257° West 421 484 38,000  Level Salt Lake Center
Wed 07:55:00 PM 39.4611 -111.1794 257° West 419 482 38,000  Level Salt Lake Center
Wed 07:56:02 PM 39.4306 -111.3372 256° West 424 488 38,000  Level Salt Lake Center
Wed 07:57:04 PM 39.4028 -111.4839 256° West 422 486 38,000  Level Salt Lake Center
Wed 07:58:06 PM 39.3739 -111.6331 256° West 428 493 38,000  Level Salt Lake Center
Wed 07:59:08 PM 39.3386 -111.8136 256° West 431 496 38,000  Level Salt Lake Center
Wed 08:00:10 PM 39.3092 -111.9603 255° West 426 490 38,000  Level Salt Lake Center
Wed 08:01:12 PM 39.2800 -112.1097 256° West 429 494 38,000  Level Salt Lake Center
Wed 08:02:14 PM 39.2531 -112.2569 257° West 425 489 38,000  Level Salt Lake Center
Wed 08:03:16 PM 39.2189 -112.4225 255° West 423 487 38,000  Level Salt Lake Center
Wed 08:04:18 PM 39.1889 -112.5683 255° West 424 488 38,000  Level Salt Lake Center
Wed 08:05:20 PM 39.1586 -112.7172 255° West 428 493 38,000  Level Salt Lake Center
Wed 08:06:22 PM 39.1292 -112.8628 255° West 423 487 38,000  Level Salt Lake Center
Wed 08:07:24 PM 39.0981 -113.0081 255° West 423 487 38,000  Level Salt Lake Center
Wed 08:08:26 PM 39.0686 -113.1494 255° West 415 478 38,000  Level Salt Lake Center
Wed 08:09:27 PM 39.0333 -113.3244 256° West 419 482 38,000  Level Salt Lake Center
Wed 08:10:29 PM 39.0033 -113.4689 255° West 421 484 38,000  Level Salt Lake Center
Wed 08:11:31 PM 38.9719 -113.6139 254° West 422 486 38,000  Level Salt Lake Center
Wed 08:12:33 PM 38.9433 -113.7600 256° West 423 487 38,000  Level Salt Lake Center
Wed 08:13:35 PM 38.9389 -113.9089 268° West 421 484 38,000  Level Salt Lake Center
Wed 08:14:37 PM 38.9472 -114.0600 274° West 427 491 38,000  Level Salt Lake Center
Wed 08:15:39 PM 38.9800 -114.2339 284° West 420 483 38,000  Level Salt Lake Center
Wed 08:16:41 PM 39.0194 -114.3758 290° West 423 487 38,000  Level Salt Lake Center
Wed 08:17:43 PM 39.0536 -114.5222 287° West 429 494 38,000  Level Salt Lake Center
Wed 08:18:45 PM 39.0619 -114.6728 274° West 425 489 38,000  Level Salt Lake Center
Wed 08:19:47 PM 39.0456 -114.8206 262° West 421 484 38,000  Level Salt Lake Center
Wed 08:20:49 PM 39.0111 -114.9636 253° West 419 482 38,000  Level Salt Lake Center
Wed 08:21:51 PM 38.9686 -115.1289 252° West 409 471 38,000  Level Salt Lake Center
Wed 08:22:53 PM 38.9336 -115.2656 252° West 406 467 38,000  Level Salt Lake Center
Wed 08:23:55 PM 38.8961 -115.3986 250° West 405 466 38,000  Level Salt Lake Center
Wed 08:24:57 PM 38.8578 -115.5344 250° West 408 470 38,000  Level Salt Lake Center
Wed 08:25:59 PM 38.8181 -115.6675 249° West 401 461 38,000  Level Salt Lake Center
Wed 08:27:01 PM 38.7772 -115.7994 248° West 397 457 38,000  Level Salt Lake Center
Wed 08:28:02 PM 38.7175 -115.9500 243° Southwest 396 456 38,000  Level Salt Lake Center
Wed 08:29:04 PM 38.6697 -116.0783 245° Southwest 398 458 38,000  Level Salt Lake Center
Wed 08:29:34 PM 38.6494 -116.1297 243° Southwest 399 459 38,000  Level Oakland Center
Wed 08:30:35 PM 38.6008 -116.2581 244° Southwest 401 461 38,000  Level Oakland Center
Wed 08:31:37 PM 38.5508 -116.3861 244° Southwest 403 464 38,000  Level Oakland Center
Wed 08:32:10 PM 38.5222 -116.4631 245° Southwest 401 461 38,000  Level Salt Lake Center
Wed 08:33:12 PM 38.4731 -116.5889 244° Southwest 399 459 38,000  Level Salt Lake Center
Wed 08:34:14 PM 38.4139 -116.7403 244° Southwest 398 458 38,000  Level Salt Lake Center
Wed 08:35:16 PM 38.3644 -116.8661 243° Southwest 397 457 38,000  Level Salt Lake Center
Wed 08:36:18 PM 38.3153 -116.9917 244° Southwest 397 457 38,000  Level Salt Lake Center
Wed 08:37:20 PM 38.2669 -117.1167 244° Southwest 398 458 38,000  Level Salt Lake Center
Wed 08:38:22 PM 38.2192 -117.2411 244° Southwest 402 463 38,000  Level Salt Lake Center
Wed 08:39:24 PM 38.1583 -117.3867 242° Southwest 400 460 38,000  Level Salt Lake Center
Wed 08:40:26 PM 38.1100 -117.5078 243° Southwest 391 450 38,000  Level Salt Lake Center
Wed 08:41:27 PM 38.0617 -117.6300 243° Southwest 389 448 38,000  Level Salt Lake Center
Wed 08:42:29 PM 38.0136 -117.7503 243° Southwest 384 442 38,000  Level Salt Lake Center
Wed 08:43:31 PM 37.9908 -117.8858 258° West 389 448 38,000  Level Salt Lake Center
Wed 08:44:33 PM 37.9769 -118.0222 263° West 392 451 38,000  Level Salt Lake Center
Wed 08:45:35 PM 37.9586 -118.1858 262° West 392 451 38,000  Level Salt Lake Center
Wed 08:46:37 PM 37.9436 -118.3231 262° West 393 452 38,000  Level Salt Lake Center
Wed 08:47:38 PM 37.9292 -118.4592 262° West 391 450 38,000  Level Salt Lake Center
Wed 08:49:00 PM 37.9050 -118.6522 261° West 394 453 38,000  Level Oakland Center
Wed 08:50:02 PM 37.8908 -118.7917 263° West 398 458 38,000  Level Oakland Center
Wed 08:51:03 PM 37.8764 -118.9300 263° West 398 458 38,000  Level Oakland Center
Wed 08:52:05 PM 37.8614 -119.0572 262° West 401 461 38,000 -195 Level Oakland Center
Wed 08:53:06 PM 37.8406 -119.2233 261° West 400 460 37,600 -738 Descending Oakland Center
Wed 08:54:07 PM 37.8239 -119.3617 261° West 399 459 36,500 -1,122 Descending Oakland Center
Wed 08:55:09 PM 37.8081 -119.4994 262° West 396 456 35,300 -1,268 Descending Oakland Center
Wed 08:56:10 PM 37.7928 -119.6392 262° West 400 460 33,900 -1,268 Descending Oakland Center
Wed 08:57:12 PM 37.7756 -119.7811 261° West 408 470 32,700 -927 Descending Oakland Center
Wed 08:58:13 PM 37.7575 -119.9242 261° West 413 475 32,000 -829 Descending Oakland Center
Wed 08:59:15 PM 37.7400 -120.0675 261° West 413 475 31,000 -1,171 Descending Oakland Center
Wed 09:00:16 PM 37.7222 -120.2119 261° West 415 478 29,600 -1,366 Descending Oakland Center
Wed 09:01:18 PM 37.7039 -120.3519 261° West 408 470 28,200 -1,561 Descending Oakland Center
Wed 09:02:19 PM 37.6814 -120.5197 260° West 404 465 26,400 -1,918 Descending Oakland Center
Wed 09:03:20 PM 37.6639 -120.6531 261° West 389 448 24,300 -1,968 Descending Oakland Center
Wed 09:04:24 PM 37.6461 -120.7875 261° West 389 448 22,300 -1,935 Descending Oakland Center
Wed 09:05:24 PM 37.6292 -120.9178 261° West 382 440 20,300 -1,934 Descending Oakland Center
Wed 09:06:25 PM 37.6144 -121.0458 262° West 375 432 18,400 -1,854 Descending Oakland Center
Wed 09:07:27 PM 37.6022 -121.1672 263° West 364 419 16,500 -1,756 Descending Oakland Center
Wed 09:08:28 PM 37.5894 -121.2842 262° West 346 398 14,800 -1,707 Descending Oakland Center
Wed 09:09:30 PM 37.5753 -121.4011 261° West 338 389 13,000 -1,610 Descending Oakland Center
Wed 09:10:31 PM 37.5611 -121.5156 261° West 332 382 11,500 -1,024 Descending Oakland Center
Wed 09:11:33 PM 37.5458 -121.6436 261° West 310 357 10,900 -878 Descending Oakland Center
Wed 09:12:34 PM 37.5186 -121.7389 250° West 290 334 9,700 -976 Descending Oakland Center
Wed 09:13:36 PM 37.4931 -121.8333 251° West 285 328 8,900 -823 Descending Oakland Center
Wed 09:14:38 PM 37.4833 -121.9167 262° West 229 264 8,000 -1,082 Descending Northern Cal TRACON
Wed 09:15:38 PM 37.5000 -121.9833 288° West 212 244 6,700 -1,350 Descending Northern Cal TRACON
Wed 09:16:38 PM 37.5167 -122.0500 288° West 202 232 5,300 -1,350 Descending Northern Cal TRACON
Wed 09:17:38 PM 37.5500 -122.1167 302° West 190 219 4,000 -1,300 Descending Northern Cal TRACON

Login

Don't have an account? Register now (free) for customized features, flight alerts, and more!